Time;durP1;ratioP1;P1;durP2;ratioP2;P2;SDS_P1;SDS_P2;PMS_P1;PMS_P2;Temp;Humidity;BMP_temperature;BMP_pressure;BME280_temperature;BME280_humidity;BME280_pressure;Samples;Min_cycle;Max_cycle;Signal;HPM_P1;HPM_P2
2023/10/15 00:00:34;;;;;;;4.53;1.40;;;;;;;6.35;100.00;101665.69;5068862;28;20084;-47
2023/10/15 00:03:06;;;;;;;5.80;1.23;;;;;;;6.40;100.00;101653.31;5068105;28;20098;-48
2023/10/15 00:05:36;;;;;;;;;;;;;;;6.45;100.00;101660.13;5067175;28;20056;-48
2023/10/15 00:08:04;;;;;;;5.63;1.17;;;;;;;6.47;100.00;101664.41;5067562;28;19951;-51
2023/10/15 00:10:34;;;;;;;3.67;1.17;;;;;;;6.50;100.00;101671.28;5066642;28;20048;-51
2023/10/15 00:13:04;;;;;;;5.47;1.35;;;;;;;6.52;100.00;101674.72;5070096;28;20048;-47
2023/10/15 00:15:32;;;;;;;4.95;1.83;;;;;;;6.47;100.00;101672.25;5068016;28;20043;-47
2023/10/15 00:18:02;;;;;;;6.10;1.40;;;;;;;6.51;100.00;101678.22;5067716;28;20488;-46
2023/10/15 00:20:35;;;;;;;5.75;1.40;;;;;;;6.54;100.00;101672.88;5067726;28;20109;-50
2023/10/15 00:23:05;;;;;;;7.97;1.40;;;;;;;6.57;100.00;101668.41;5067673;28;20119;-48
2023/10/15 00:25:37;;;;;;;4.78;1.30;;;;;;;6.58;100.00;101662.25;5067204;28;20072;-50
2023/10/15 00:28:09;;;;;;;6.80;1.33;;;;;;;6.59;100.00;101670.97;5067113;28;20049;-49
2023/10/15 00:30:39;;;;;;;3.65;1.63;;;;;;;6.65;100.00;101669.91;5067247;28;20119;-52
2023/10/15 00:33:11;;;;;;;4.43;1.00;;;;;;;6.65;100.00;101654.22;5067755;28;20151;-46
2023/10/15 00:35:45;;;;;;;3.33;0.75;;;;;;;6.68;100.00;101668.03;5070202;28;20040;-48
2023/10/15 00:38:19;;;;;;;6.38;1.30;;;;;;;6.71;100.00;101675.78;5066470;28;20082;-48
2023/10/15 00:40:49;;;;;;;5.30;1.00;;;;;;;6.72;100.00;101687.06;5065019;28;20059;-49
2023/10/15 00:43:19;;;;;;;5.95;1.05;;;;;;;6.70;100.00;101694.13;5067823;28;20145;-48
2023/10/15 00:45:47;;;;;;;5.60;1.00;;;;;;;6.71;100.00;101693.22;5067309;28;20088;-46
2023/10/15 00:48:22;;;;;;;3.00;1.20;;;;;;;6.71;100.00;101691.44;5067864;28;20056;-48
2023/10/15 00:50:53;;;;;;;7.45;1.33;;;;;;;6.67;100.00;101684.63;5064961;28;20048;-48
2023/10/15 00:53:25;;;;;;;7.60;1.30;;;;;;;6.62;100.00;101696.16;5067986;28;20054;-49
2023/10/15 00:55:54;;;;;;;6.82;1.30;;;;;;;6.65;100.00;101696.03;5065125;28;20407;-51
2023/10/15 00:58:31;;;;;;;6.78;1.55;;;;;;;6.66;100.00;101680.31;5070776;28;20581;-47
2023/10/15 01:01:20;;;;;;;10.60;1.40;;;;;;;6.65;100.00;101675.13;5066505;28;20110;-48
2023/10/15 01:03:52;;;;;;;4.57;1.17;;;;;;;6.65;100.00;101667.28;5074002;28;20127;-49
2023/10/15 01:06:29;;;;;;;2.67;0.75;;;;;;;6.67;100.00;101658.47;5074984;28;20048;-46
2023/10/15 01:09:01;;;;;;;5.25;1.05;;;;;;;6.72;100.00;101647.84;5071304;28;20044;-50
2023/10/15 01:11:29;;;;;;;3.85;0.82;;;;;;;6.67;100.00;101621.03;5069907;28;20067;-47
2023/10/15 01:13:58;;;;;;;4.53;1.40;;;;;;;6.66;100.00;101611.50;5070536;28;20048;-46
2023/10/15 01:16:31;;;;;;;1.88;0.70;;;;;;;6.65;100.00;101601.94;5071570;28;20403;-48
2023/10/15 01:19:14;;;;;;;3.65;0.77;;;;;;;6.68;100.00;101594.84;5070419;28;20053;-47
2023/10/15 01:21:51;;;;;;;1.75;0.60;;;;;;;6.70;100.00;101605.25;5071901;28;20044;-46
2023/10/15 01:24:21;;;;;;;1.98;0.77;;;;;;;6.70;100.00;101597.41;5071502;28;20453;-46
2023/10/15 01:27:00;;;;;;;2.42;0.80;;;;;;;6.73;100.00;101589.44;5067425;28;20047;-45
2023/10/15 01:29:33;;;;;;;2.15;0.90;;;;;;;6.74;100.00;101585.91;5071271;28;20092;-48
2023/10/15 01:32:03;;;;;;;6.40;0.90;;;;;;;6.73;100.00;101590.28;5070597;28;20063;-47
2023/10/15 01:34:37;;;;;;;5.18;1.15;;;;;;;6.72;100.00;101585.97;5071487;28;20142;-46
2023/10/15 01:37:15;;;;;;;4.00;0.70;;;;;;;6.76;100.00;101586.69;5069291;28;20053;-47
2023/10/15 01:39:47;;;;;;;2.30;0.70;;;;;;;6.75;100.00;101587.63;5071214;28;20044;-48
2023/10/15 01:45:13;;;;;;;1.55;0.77;;;;;;;6.75;100.00;101579.78;5074649;28;20076;-47
2023/10/15 01:48:03;;;;;;;7.47;1.40;;;;;;;6.72;100.00;101585.97;5074846;28;20049;-46
2023/10/15 01:50:41;;;;;;;3.95;0.80;;;;;;;6.73;100.00;101594.66;5074879;28;20118;-47
2023/10/15 01:53:09;;;;;;;2.40;0.80;;;;;;;6.75;100.00;101601.53;5073048;28;20459;-48
2023/10/15 01:55:52;;;;;;;3.60;0.90;;;;;;;6.74;100.00;101606.84;5069958;28;20143;-47
2023/10/15 01:58:24;;;;;;;3.88;0.80;;;;;;;6.72;100.00;101609.50;5070225;28;20525;-47
2023/10/15 02:00:53;;;;;;;5.65;0.90;;;;;;;6.75;100.00;101605.94;5074567;28;20450;-48
2023/10/15 02:03:21;;;;;;;3.40;0.93;;;;;;;6.73;100.00;101620.81;5074430;28;20055;-46
2023/10/15 02:05:54;;;;;;;3.15;1.20;;;;;;;6.71;100.00;101620.03;5072431;28;20063;-49
2023/10/15 02:08:24;;;;;;;3.53;0.93;;;;;;;6.68;100.00;101610.53;5070695;28;20052;-48
2023/10/15 02:10:53;;;;;;;2.60;1.00;;;;;;;6.67;100.00;101602.75;5067167;28;20171;-48
2023/10/15 02:13:30;;;;;;;3.65;1.30;;;;;;;6.66;100.00;101609.72;5069957;28;20040;-50
2023/10/15 02:16:08;;;;;;;4.43;1.02;;;;;;;6.70;100.00;101603.47;5074278;28;20036;-50
2023/10/15 02:18:38;;;;;;;4.43;1.30;;;;;;;6.71;100.00;101597.34;5074026;28;20110;-49
2023/10/15 02:21:08;;;;;;;5.90;1.13;;;;;;;6.72;100.00;101593.81;5074038;28;20094;-50
2023/10/15 02:23:48;;;;;;;4.63;1.60;;;;;;;6.73;100.00;101590.28;5074200;28;20631;-48
2023/10/15 02:26:18;;;;;;;2.28;1.00;;;;;;;6.75;100.00;101592.84;5074062;28;20044;-48
2023/10/15 02:28:53;;;;;;;3.50;1.20;;;;;;;6.77;100.00;101591.88;5072818;28;20054;-49
2023/10/15 02:31:23;;;;;;;5.63;1.10;;;;;;;6.80;100.00;101592.69;5073966;28;20067;-49
2023/10/15 02:33:55;;;;;;;4.70;1.10;;;;;;;6.81;100.00;101594.38;5073734;28;20052;-48
2023/10/15 02:36:25;;;;;;;4.00;0.90;;;;;;;6.82;100.00;101583.03;5074162;28;20045;-48
2023/10/15 02:38:53;;;;;;;5.13;1.23;;;;;;;6.78;100.00;101582.28;5073880;28;20496;-47
2023/10/15 02:41:25;;;;;;;4.78;1.02;;;;;;;6.83;100.00;101579.47;5072471;28;20169;-48
2023/10/15 02:43:55;;;;;;;8.03;1.20;;;;;;;6.84;100.00;101573.34;5070475;28;20060;-48
2023/10/15 02:46:25;;;;;;;2.00;0.82;;;;;;;6.81;100.00;101570.84;5069645;28;20040;-48
2023/10/15 02:48:54;;;;;;;4.03;1.10;;;;;;;6.79;100.00;101570.91;5068889;28;20072;-48
2023/10/15 02:51:26;;;;;;;4.25;1.20;;;;;;;6.82;100.00;101567.34;5071127;28;20050;-48
2023/10/15 02:54:03;;;;;;;3.45;1.00;;;;;;;6.81;100.00;101563.84;5073572;28;20049;-50
2023/10/15 02:56:31;;;;;;;3.47;0.90;;;;;;;6.85;100.00;101569.84;5073430;28;20040;-48
2023/10/15 02:59:02;;;;;;;4.85;1.15;;;;;;;6.85;100.00;101559.38;5069388;28;20093;-47
2023/10/15 03:01:31;;;;;;;2.38;1.00;;;;;;;6.89;100.00;101559.19;5070216;28;20041;-49
2023/10/15 03:04:07;;;;;;;3.08;0.90;;;;;;;6.88;100.00;101565.31;5073160;28;20396;-48
2023/10/15 03:06:41;;;;;;;4.03;1.00;;;;;;;6.85;100.00;101567.22;5070631;28;20040;-50
2023/10/15 03:09:11;;;;;;;4.65;1.33;;;;;;;6.89;100.00;101576.66;5067923;28;20056;-48
2023/10/15 03:11:50;;;;;;;3.90;1.10;;;;;;;6.88;100.00;101570.53;5067791;28;20048;-48
2023/10/15 03:14:21;;;;;;;2.05;0.80;;;;;;;6.86;100.00;101569.78;5070988;28;20048;-48
2023/10/15 03:16:56;;;;;;;2.92;1.02;;;;;;;6.81;100.00;101571.69;5068084;28;20048;-51
2023/10/15 03:19:25;;;;;;;1.50;0.60;;;;;;;6.84;100.00;101581.19;5069382;28;20393;-48
2023/10/15 03:21:58;;;;;;;3.03;0.80;;;;;;;6.80;100.00;101575.22;5068294;28;20045;-49
2023/10/15 03:24:32;;;;;;;2.97;0.85;;;;;;;6.79;100.00;101573.53;5069890;28;20045;-48
2023/10/15 03:27:00;;;;;;;2.58;0.80;;;;;;;6.75;100.00;101580.63;5071316;28;20048;-47
2023/10/15 03:29:30;;;;;;;3.33;0.80;;;;;;;6.73;100.00;101579.81;5070092;28;20052;-51
2023/10/15 03:32:04;;;;;;;4.30;0.80;;;;;;;6.70;100.00;101584.31;5068664;28;20048;-53
2023/10/15 03:34:35;;;;;;;1.85;0.70;;;;;;;6.69;100.00;101590.47;5071357;28;20076;-48
2023/10/15 03:37:05;;;;;;;3.50;0.88;;;;;;;6.68;100.00;101588.75;5071283;28;20049;-50
2023/10/15 03:39:54;;;;;;;2.97;0.60;;;;;;;6.66;100.00;101591.41;5070357;28;20045;-49
2023/10/15 03:42:27;;;;;;;2.35;0.70;;;;;;;6.70;100.00;101592.16;5067257;28;20052;-49
2023/10/15 03:45:08;;;;;;;3.05;0.73;;;;;;;6.72;100.00;101598.19;5066330;28;20057;-49
2023/10/15 03:47:39;;;;;;;1.33;0.60;;;;;;;6.71;100.00;101593.88;5068204;28;20495;-46
2023/10/15 03:50:09;;;;;;;2.67;0.70;;;;;;;6.73;100.00;101599.88;5068524;28;20052;-47
2023/10/15 03:52:38;;;;;;;2.10;0.77;;;;;;;6.70;100.00;101600.00;5068337;28;20044;-48
2023/10/15 03:55:07;;;;;;;3.33;0.85;;;;;;;6.67;100.00;101600.97;5067625;28;20040;-48
2023/10/15 03:57:36;;;;;;;2.08;0.73;;;;;;;6.66;100.00;101611.50;5071956;28;20048;-46
2023/10/15 04:00:15;;;;;;;1.48;0.60;;;;;;;6.64;100.00;101613.28;5072203;28;20122;-45
2023/10/15 04:03:00;;;;;;;2.90;1.00;;;;;;;6.55;100.00;101619.72;5068247;28;20048;-47
2023/10/15 04:05:31;;;;;;;1.75;0.80;;;;;;;6.54;100.00;101636.31;5068172;28;20392;-46
2023/10/15 04:08:00;;;;;;;3.15;0.85;;;;;;;6.56;100.00;101651.03;5071522;28;20123;-47
2023/10/15 04:10:33;;;;;;;4.40;1.20;;;;;;;6.55;100.00;101653.69;5069180;28;20521;-46
2023/10/15 04:13:04;;;;;;;4.85;1.15;;;;;;;6.50;100.00;101653.84;5066665;28;20435;-45
2023/10/15 04:15:35;;;;;;;3.17;0.80;;;;;;;6.43;100.00;101678.50;5067350;28;20123;-47
2023/10/15 04:18:04;;;;;;;3.08;0.75;;;;;;;6.35;100.00;101685.75;5067193;28;20492;-47
2023/10/15 04:20:35;;;;;;;4.47;1.25;;;;;;;6.35;100.00;101686.56;5067897;28;20047;-49
2023/10/15 04:23:04;;;;;;;5.60;1.00;;;;;;;6.30;100.00;101682.41;5066682;28;20049;-48
2023/10/15 04:25:33;;;;;;;2.35;0.82;;;;;;;6.33;100.00;101664.03;5067118;28;20110;-46
2023/10/15 04:28:10;;;;;;;4.60;0.85;;;;;;;6.32;100.00;101647.50;5069257;28;20120;-48
2023/10/15 04:30:40;;;;;;;0.43;0.40;;;;;;;6.34;100.00;101622.19;5071440;28;20097;-48
2023/10/15 04:33:13;;;;;;;1.38;0.73;;;;;;;6.36;100.00;101601.22;5070190;28;20052;-48
2023/10/15 04:35:42;;;;;;;3.10;0.70;;;;;;;6.37;100.00;101610.78;5066896;28;20098;-47
2023/10/15 04:38:18;;;;;;;2.35;0.73;;;;;;;6.41;100.00;101617.59;5066987;28;20067;-47
2023/10/15 04:41:00;;;;;;;1.73;0.73;;;;;;;6.45;100.00;101613.09;5063763;28;20044;-47
2023/10/15 04:43:29;;;;;;;2.67;0.70;;;;;;;6.47;100.00;101614.75;5066124;28;20052;-46
2023/10/15 04:46:02;;;;;;;2.13;0.70;;;;;;;6.51;100.00;101613.75;5070401;28;20556;-47
2023/10/15 04:48:32;;;;;;;2.25;0.70;;;;;;;6.52;100.00;101609.38;5067671;28;20055;-48
2023/10/15 04:51:04;;;;;;;2.90;0.65;;;;;;;6.49;100.00;101620.78;5065898;28;20055;-47
2023/10/15 04:53:33;;;;;;;2.92;0.68;;;;;;;6.52;100.00;101619.84;5067161;28;20411;-49
2023/10/15 04:56:04;;;;;;;1.17;0.60;;;;;;;6.45;100.00;101631.41;5063928;28;20048;-48
2023/10/15 04:58:32;;;;;;;1.27;0.50;;;;;;;6.43;100.00;101634.06;5063543;28;20067;-48
2023/10/15 05:01:04;;;;;;;1.05;0.68;;;;;;;6.42;100.00;101634.97;5065395;28;20058;-48
2023/10/15 05:03:33;;;;;;;0.63;0.50;;;;;;;6.36;100.00;101638.66;5067765;28;20079;-50
2023/10/15 05:06:02;;;;;;;3.40;0.70;;;;;;;6.34;100.00;101632.63;5066425;28;20048;-47
2023/10/15 05:08:32;;;;;;;2.05;0.60;;;;;;;6.28;100.00;101639.84;5067897;28;20593;-46
2023/10/15 05:11:00;;;;;;;2.42;0.60;;;;;;;6.22;100.00;101639.13;5065232;28;20068;-50
2023/10/15 05:13:31;;;;;;;1.05;0.65;;;;;;;6.21;100.00;101621.75;5065842;28;20466;-46
2023/10/15 05:15:59;;;;;;;0.90;0.68;;;;;;;6.20;100.00;101625.28;5065925;28;20446;-46
2023/10/15 05:18:32;;;;;;;2.40;0.50;;;;;;;6.23;100.00;101619.06;5067789;28;20523;-47
2023/10/15 05:21:02;;;;;;;5.00;0.65;;;;;;;6.26;100.00;101625.06;5066584;28;20044;-46
2023/10/15 05:23:30;;;;;;;1.77;0.55;;;;;;;6.22;100.00;101625.22;5068832;28;20507;-48
2023/10/15 05:25:58;;;;;;;1.42;0.60;;;;;;;6.18;100.00;101626.25;5071278;28;20037;-47
2023/10/15 05:28:29;;;;;;;6.00;0.90;;;;;;;6.10;100.00;101631.72;5068254;28;20064;-47
2023/10/15 05:30:58;;;;;;;2.53;0.82;;;;;;;6.11;100.00;101638.66;5066932;28;20053;-47
2023/10/15 05:33:27;;;;;;;4.53;0.90;;;;;;;6.08;100.00;101646.56;5067645;28;20048;-46
2023/10/15 05:35:57;;;;;;;2.00;0.85;;;;;;;6.06;100.00;101641.41;5068213;28;20064;-46
2023/10/15 05:38:27;;;;;;;2.97;0.70;;;;;;;6.12;100.00;101642.09;5071277;28;20106;-48
2023/10/15 05:40:58;;;;;;;2.67;0.63;;;;;;;6.06;100.00;101640.56;5066601;28;20055;-51
2023/10/15 05:43:27;;;;;;;3.15;0.90;;;;;;;6.02;100.00;101641.56;5065305;28;20488;-45
2023/10/15 05:45:56;;;;;;;3.65;0.95;;;;;;;6.02;100.00;101633.72;5066490;28;20052;-47
2023/10/15 05:48:24;;;;;;;3.30;0.70;;;;;;;6.01;100.00;101639.84;5068341;28;20040;-46
2023/10/15 05:50:52;;;;;;;1.42;0.60;;;;;;;5.92;100.00;101647.06;5068745;28;20157;-48
2023/10/15 05:53:22;;;;;;;3.13;0.90;;;;;;;5.94;100.00;101647.00;5071043;28;20127;-47
2023/10/15 05:55:51;;;;;;;3.97;0.90;;;;;;;5.87;100.00;101643.72;5068552;28;20121;-48
2023/10/15 05:58:19;;;;;;;2.20;0.80;;;;;;;5.83;100.00;101643.91;5070485;28;20469;-48
2023/10/15 06:00:47;;;;;;;2.45;0.80;;;;;;;5.85;100.00;101652.50;5070391;28;20442;-49
2023/10/15 06:03:16;;;;;;;3.20;0.80;;;;;;;5.80;100.00;101655.28;5072795;28;20048;-46
2023/10/15 06:05:44;;;;;;;3.38;1.00;;;;;;;5.73;100.00;101652.00;5071251;28;20097;-48
2023/10/15 06:08:12;;;;;;;2.63;0.90;;;;;;;5.74;100.00;101655.50;5070036;28;20040;-48
2023/10/15 06:10:42;;;;;;;2.38;0.93;;;;;;;5.69;100.00;101660.84;5073940;28;20072;-47
2023/10/15 06:13:10;;;;;;;3.85;1.10;;;;;;;5.65;100.00;101666.22;5072924;28;20116;-48
2023/10/15 06:15:39;;;;;;;5.28;1.23;;;;;;;5.65;100.00;101659.22;5069482;28;20051;-50
2023/10/15 06:18:09;;;;;;;2.22;0.80;;;;;;;5.59;100.00;101652.47;5068441;28;20048;-49
2023/10/15 06:20:37;;;;;;;2.75;0.90;;;;;;;5.56;100.00;101647.34;5070151;28;20506;-50
2023/10/15 06:23:07;;;;;;;2.75;1.17;;;;;;;5.49;100.00;101647.56;5070145;28;20063;-48
2023/10/15 06:25:38;;;;;;;2.33;1.00;;;;;;;5.53;100.00;101660.47;5069149;28;20599;-49
2023/10/15 06:28:13;;;;;;;4.22;0.70;;;;;;;5.54;100.00;101661.34;5069309;28;20059;-46
2023/10/15 06:30:43;;;;;;;3.70;0.95;;;;;;;5.55;100.00;101669.13;5071851;28;20056;-46
2023/10/15 06:33:13;;;;;;;4.45;0.90;;;;;;;5.58;100.00;101676.00;5073856;28;20131;-46
2023/10/15 06:35:42;;;;;;;2.08;0.80;;;;;;;5.58;100.00;101678.59;5073621;28;20053;-47
2023/10/15 06:38:11;;;;;;;3.75;1.00;;;;;;;5.57;100.00;101684.72;5073895;28;20060;-46
2023/10/15 06:40:40;;;;;;;2.67;0.82;;;;;;;5.56;100.00;101690.84;5071016;28;20044;-46
2023/10/15 06:43:10;;;;;;;3.80;1.10;;;;;;;5.57;100.00;101689.94;5068549;28;20068;-45
2023/10/15 06:45:38;;;;;;;1.73;0.90;;;;;;;5.57;100.00;101706.44;5069572;28;20586;-47
2023/10/15 06:48:07;;;;;;;5.85;1.20;;;;;;;5.59;100.00;101696.81;5069320;28;20044;-49
2023/10/15 06:50:36;;;;;;;4.32;1.27;;;;;;;5.63;100.00;101704.53;5068872;28;20123;-47
2023/10/15 06:53:05;;;;;;;3.88;1.35;;;;;;;5.66;100.00;101717.50;5069546;28;20072;-49
2023/10/15 06:55:35;;;;;;;4.10;1.20;;;;;;;5.73;100.00;101716.44;5068583;28;20049;-47
2023/10/15 06:58:03;;;;;;;2.88;1.15;;;;;;;5.76;100.00;101724.16;5070744;28;20075;-47
2023/10/15 07:00:36;;;;;;;2.90;1.10;;;;;;;5.82;100.00;101737.03;5071489;28;20060;-48
2023/10/15 07:03:05;;;;;;;2.88;0.90;;;;;;;5.84;100.00;101742.22;5069199;28;20049;-46
2023/10/15 07:05:33;;;;;;;3.70;1.00;;;;;;;5.89;100.00;101751.59;5069301;28;20040;-46
2023/10/15 07:08:05;;;;;;;6.70;1.52;;;;;;;5.94;100.00;101759.28;5069068;28;20048;-45
2023/10/15 07:10:36;;;;;;;4.20;1.00;;;;;;;5.97;100.00;101751.38;5068034;28;20059;-47
2023/10/15 07:13:05;;;;;;;5.20;1.05;;;;;;;6.04;100.00;101746.81;5071945;28;20029;-46
2023/10/15 07:15:38;;;;;;;3.53;1.02;;;;;;;6.07;100.00;101746.75;5068779;28;20113;-52
2023/10/15 07:18:08;;;;;;;2.55;1.00;;;;;;;6.09;100.00;101755.38;5067397;28;20139;-51
2023/10/15 07:20:36;;;;;;;3.65;1.13;;;;;;;6.11;100.00;101764.03;5071012;28;20048;-48
2023/10/15 07:23:08;;;;;;;4.10;1.30;;;;;;;6.18;100.00;101765.53;5068781;28;20419;-48
2023/10/15 07:25:36;;;;;;;3.50;1.38;;;;;;;6.24;100.00;101767.97;5083549;28;20195;-47
2023/10/15 07:28:05;;;;;;;4.10;1.50;;;;;;;6.33;100.00;101764.19;5070970;28;20040;-46
2023/10/15 07:30:33;;;;;;;3.08;1.10;;;;;;;6.43;100.00;101768.22;5069441;28;20063;-47
2023/10/15 07:33:03;;;;;;;3.05;0.85;;;;;;;6.54;100.00;101770.44;5068787;28;20503;-46
2023/10/15 07:35:31;;;;;;;4.35;1.30;;;;;;;6.61;100.00;101778.94;5068981;28;20499;-49
2023/10/15 07:38:02;;;;;;;4.45;1.30;;;;;;;6.65;100.00;101784.91;5067664;28;20048;-47
2023/10/15 07:40:32;;;;;;;6.50;1.23;;;;;;;6.63;100.00;101790.19;5067746;28;20052;-47
2023/10/15 07:43:02;;;;;;;3.80;1.27;;;;;;;6.67;100.00;101797.03;5065980;28;20519;-46
2023/10/15 07:45:32;;;;;;;8.57;2.72;;;;;;;6.72;100.00;101804.72;5066998;28;20053;-47
2023/10/15 07:48:03;;;;;;;7.22;2.95;;;;;;;6.75;100.00;101810.69;5068014;28;20060;-47
2023/10/15 07:50:34;;;;;;;7.25;1.70;;;;;;;6.82;100.00;101813.97;5066819;28;20403;-47
2023/10/15 07:53:03;;;;;;;4.10;1.08;;;;;;;6.87;100.00;101808.56;5069062;28;20063;-47
2023/10/15 07:55:32;;;;;;;5.10;1.45;;;;;;;6.87;100.00;101812.06;5072161;28;20055;-48
2023/10/15 07:58:01;;;;;;;4.00;1.17;;;;;;;6.84;100.00;101814.75;5071059;28;20531;-52
2023/10/15 08:00:30;;;;;;;3.55;1.40;;;;;;;6.91;100.00;101808.44;5072265;28;20036;-48
2023/10/15 08:03:00;;;;;;;4.55;1.13;;;;;;;6.89;100.00;101802.38;5071076;28;20040;-48
2023/10/15 08:05:31;;;;;;;6.35;1.15;;;;;;;6.98;100.00;101813.44;5072111;28;20132;-47
2023/10/15 08:08:03;;;;;;;4.18;1.08;;;;;;;7.01;100.00;101814.19;5070596;28;20444;-47
2023/10/15 08:10:34;;;;;;;4.70;0.93;;;;;;;7.05;100.00;101818.41;5067984;28;20045;-49
2023/10/15 08:13:06;;;;;;;3.05;1.00;;;;;;;7.07;100.00;101816.56;5066798;28;20135;-46
2023/10/15 08:15:36;;;;;;;3.85;0.90;;;;;;;7.06;100.00;101829.72;5067739;28;20052;-47
2023/10/15 08:18:05;;;;;;;4.47;0.93;;;;;;;7.14;100.00;101829.47;5071698;28;20127;-47
2023/10/15 08:20:35;;;;;;;4.35;0.88;;;;;;;7.21;100.00;101839.66;5070203;28;20538;-47
2023/10/15 08:23:03;;;;;;;3.15;0.88;;;;;;;7.28;100.00;101849.00;5066565;28;20498;-49
2023/10/15 08:25:36;;;;;;;3.53;0.90;;;;;;;7.31;100.00;101844.56;5067002;28;20052;-45
2023/10/15 08:28:07;;;;;;;1.67;0.82;;;;;;;7.34;100.00;101847.94;5067046;28;20118;-47
2023/10/15 08:30:36;;;;;;;5.68;0.98;;;;;;;7.33;100.00;101853.22;5067966;28;20047;-46
2023/10/15 08:33:10;;;;;;;3.13;1.13;;;;;;;7.38;100.00;101848.69;5068641;28;20051;-47
2023/10/15 08:35:41;;;;;;;2.75;0.80;;;;;;;7.41;100.00;101866.88;5066958;28;20040;-50
2023/10/15 08:38:12;;;;;;;5.30;1.02;;;;;;;7.42;100.00;101876.44;5067552;28;20524;-50
2023/10/15 08:40:42;;;;;;;4.72;1.20;;;;;;;7.39;100.00;101879.16;5066069;28;20045;-47
2023/10/15 08:43:14;;;;;;;5.13;1.23;;;;;;;7.50;100.00;101873.53;5066689;28;20553;-46
2023/10/15 08:45:45;;;;;;;5.30;1.40;;;;;;;7.64;100.00;101866.06;5067337;28;20053;-47
2023/10/15 08:48:15;;;;;;;5.15;1.00;;;;;;;7.85;100.00;101863.56;5068978;28;20041;-50
2023/10/15 08:50:46;;;;;;;4.25;1.00;;;;;;;7.98;100.00;101862.19;5071478;28;20040;-50
2023/10/15 08:53:16;;;;;;;4.30;1.00;;;;;;;7.97;100.00;101857.00;5066827;28;20056;-48
2023/10/15 08:55:46;;;;;;;3.80;1.13;;;;;;;8.06;100.00;101864.53;5066176;28;20151;-48
2023/10/15 08:58:17;;;;;;;2.60;0.82;;;;;;;8.06;100.00;101875.00;5070067;28;20416;-47
2023/10/15 09:00:52;;;;;;;3.03;0.90;;;;;;;8.00;100.00;101876.06;5071329;28;20514;-46
2023/10/15 09:03:23;;;;;;;3.33;1.00;;;;;;;8.06;100.00;101881.06;5068084;28;20139;-50
2023/10/15 09:05:53;;;;;;;3.35;0.77;;;;;;;8.06;100.00;101883.69;5066855;28;20056;-47
2023/10/15 09:08:22;;;;;;;2.47;0.60;;;;;;;8.12;100.00;101885.22;5067388;28;20048;-50
2023/10/15 09:10:54;;;;;;;2.78;1.02;;;;;;;8.10;100.00;101900.16;5067087;28;20496;-50
2023/10/15 09:13:25;;;;;;;5.35;0.90;;;;;;;8.15;100.00;101902.59;5071211;28;20127;-50
2023/10/15 09:15:55;;;;;;;3.15;0.73;;;;;;;8.21;100.00;101905.84;5069961;28;20058;-51
2023/10/15 09:18:26;;;;;;;3.63;0.80;;;;;;;8.26;100.00;101905.66;5071231;28;20110;-49
2023/10/15 09:21:03;;;;;;;3.08;0.80;;;;;;;8.34;100.00;101914.06;5071217;28;20139;-48
2023/10/15 09:23:35;;;;;;;3.38;1.00;;;;;;;8.48;100.00;101920.59;5073242;28;20051;-50
2023/10/15 09:26:04;;;;;;;1.38;0.70;;;;;;;8.62;100.00;101918.28;5075421;28;20045;-50
2023/10/15 09:28:32;;;;;;;1.80;0.82;;;;;;;8.68;100.00;101930.31;5075227;28;20044;-50
2023/10/15 09:31:04;;;;;;;3.63;0.90;;;;;;;8.88;100.00;101946.09;5075031;28;19921;-49
2023/10/15 09:33:33;;;;;;;3.47;0.95;;;;;;;9.21;100.00;101958.72;5075131;28;20040;-49
2023/10/15 09:36:05;;;;;;;4.00;0.82;;;;;;;9.36;100.00;101953.78;5075082;28;20559;-49
2023/10/15 09:38:34;;;;;;;3.58;0.90;;;;;;;9.29;100.00;101967.16;5072250;28;20055;-48
2023/10/15 09:41:05;;;;;;;3.70;0.90;;;;;;;9.23;100.00;101954.28;5067268;28;20086;-50
2023/10/15 09:43:35;;;;;;;3.20;0.93;;;;;;;9.18;100.00;101953.63;5074076;28;20052;-48
2023/10/15 09:46:05;;;;;;;2.78;0.95;;;;;;;9.04;100.00;101961.19;5069487;28;20411;-46
2023/10/15 09:48:37;;;;;;;3.47;0.90;;;;;;;9.18;100.00;101953.63;5072682;28;20459;-49
2023/10/15 09:51:08;;;;;;;2.60;0.75;;;;;;;9.29;100.00;101958.44;5073108;28;20403;-46
2023/10/15 09:53:41;;;;;;;2.35;0.88;;;;;;;9.28;100.00;101962.84;5074248;28;20551;-47
2023/10/15 09:56:12;;;;;;;2.60;1.00;;;;;;;9.41;100.00;101959.69;5069099;28;20052;-47
2023/10/15 09:58:42;;;;;;;3.03;0.70;;;;;;;9.53;100.00;101967.03;5070502;28;20057;-49
2023/10/15 10:01:25;;;;;;;2.63;0.75;;;;;;;9.57;100.00;101965.13;5072190;28;20036;-47
2023/10/15 10:04:24;;;;;;;4.15;1.00;;;;;;;9.56;100.00;101971.31;5068703;28;20082;-46
2023/10/15 10:07:25;;;;;;;5.47;0.80;;;;;;;9.60;100.00;101971.09;5070096;28;20389;-48
2023/10/15 10:10:29;;;;;;;4.30;0.93;;;;;;;9.61;100.00;101969.31;5062773;28;20507;-46
2023/10/15 10:13:16;;;;;;;5.60;1.00;;;;;;;9.40;100.00;101982.44;5072919;28;20040;-50
2023/10/15 10:15:52;;;;;;;3.13;0.85;;;;;;;9.48;100.00;101980.34;5070293;28;20056;-49
2023/10/15 10:18:22;;;;;;;3.65;0.80;;;;;;;9.71;100.00;101985.56;5073378;28;20055;-47
2023/10/15 10:20:51;;;;;;;2.90;0.80;;;;;;;9.81;100.00;101989.47;5069615;28;20059;-46
2023/10/15 10:23:19;;;;;;;2.55;0.70;;;;;;;10.11;100.00;101989.03;5071450;28;20047;-47
2023/10/15 10:25:50;;;;;;;4.63;0.95;;;;;;;10.14;100.00;101991.53;5070976;28;20139;-45
2023/10/15 10:28:22;;;;;;;4.32;1.10;;;;;;;10.25;100.00;101984.03;5068557;28;20102;-47
2023/10/15 10:30:55;;;;;;;3.65;0.80;;;;;;;10.24;100.00;101995.47;5067837;28;20079;-48
2023/10/15 10:33:40;;;;;;;3.45;0.80;;;;;;;10.50;100.00;101990.81;5069987;28;20052;-46
2023/10/15 10:36:13;;;;;;;3.28;0.80;;;;;;;11.25;100.00;101994.22;5072126;28;20055;-47
2023/10/15 10:38:41;;;;;;;2.90;0.95;;;;;;;11.35;100.00;101993.78;5069865;28;20055;-45
2023/10/15 10:41:16;;;;;;;3.33;1.08;;;;;;;12.06;100.00;101996.28;5067479;28;20057;-47
2023/10/15 10:43:47;;;;;;;5.93;0.73;;;;;;;11.97;100.00;101989.72;5073695;28;20403;-46
2023/10/15 10:46:22;;;;;;;4.70;1.00;;;;;;;12.00;100.00;101993.97;5073406;28;20059;-46
2023/10/15 10:49:05;;;;;;;;;;;;;;;11.96;100.00;102001.19;5074117;28;20389;-47
2023/10/15 10:51:34;;;;;;;3.85;0.93;;;;;;;12.11;100.00;101998.69;5072323;28;19924;-47
2023/10/15 10:54:32;;;;;;;4.18;1.00;;;;;;;12.96;100.00;101999.31;5073500;28;20055;-44
2023/10/15 10:57:08;;;;;;;4.68;1.13;;;;;;;13.38;100.00;101994.31;5031401;28;20091;-45
2023/10/15 10:59:38;;;;;;;4.28;1.15;;;;;;;13.66;100.00;101989.09;5059088;28;20467;-47
2023/10/15 11:02:11;;;;;;;3.90;0.82;;;;;;;13.84;100.00;101989.75;5069525;28;20055;-46
2023/10/15 11:04:41;;;;;;;4.40;0.80;;;;;;;13.79;100.00;101994.47;5069422;28;20402;-46
2023/10/15 11:07:10;;;;;;;4.03;0.80;;;;;;;14.27;100.00;101994.19;5068985;28;20118;-46
2023/10/15 11:09:39;;;;;;;4.85;1.20;;;;;;;13.94;100.00;101992.69;5068530;28;20052;-48
2023/10/15 11:12:10;;;;;;;5.35;0.90;;;;;;;13.40;100.00;101992.41;5070284;28;20048;-47
2023/10/15 11:14:39;;;;;;;4.43;1.30;;;;;;;13.50;100.00;101988.31;5073273;28;20049;-45
2023/10/15 11:17:09;;;;;;;4.72;0.82;;;;;;;13.84;100.00;102004.78;5072328;28;20063;-46
2023/10/15 11:19:39;;;;;;;3.00;0.80;;;;;;;13.63;100.00;101993.69;5068214;28;20048;-46
2023/10/15 11:22:14;;;;;;;4.03;1.10;;;;;;;13.62;100.00;102003.44;5069923;28;20450;-48
2023/10/15 11:24:43;;;;;;;5.55;2.17;;;;;;;13.95;100.00;102010.25;5071741;28;20056;-46
2023/10/15 11:27:13;;;;;;;2.13;0.65;;;;;;;13.67;100.00;102001.38;5072807;28;20048;-47
2023/10/15 11:29:43;;;;;;;2.58;0.70;;;;;;;13.66;100.00;102004.06;5070507;28;20068;-46
2023/10/15 11:32:12;;;;;;;3.63;0.80;;;;;;;14.18;100.00;102014.13;5068821;28;20044;-47
2023/10/15 11:34:41;;;;;;;3.08;0.80;;;;;;;13.75;100.00;102002.69;5071113;28;20049;-47
2023/10/15 11:37:10;;;;;;;3.33;0.93;;;;;;;13.44;100.00;102005.38;5073147;28;20521;-49
2023/10/15 11:39:42;;;;;;;3.00;0.95;;;;;;;13.22;100.00;102003.09;5070950;28;20044;-49
2023/10/15 11:42:15;;;;;;;5.28;1.23;;;;;;;13.97;100.00;102011.00;5066827;28;20527;-47
2023/10/15 11:44:44;;;;;;;5.68;1.05;;;;;;;14.05;100.00;102007.91;5069028;28;20119;-47
2023/10/15 11:47:15;;;;;;;3.17;0.90;;;;;;;14.09;100.00;102003.28;5071562;28;20098;-48